Time;durP1;ratioP1;P1;durP2;ratioP2;P2;SDS_P1;SDS_P2;PMS_P1;PMS_P2;Temp;Humidity;BMP_temperature;BMP_pressure;BME280_temperature;BME280_humidity;BME280_pressure;Samples;Min_cycle;Max_cycle;Signal;HPM_P1;HPM_P2
2021/01/14 03:01:44;;;;;;;9.47;7.90;;;;;;;-0.51;87.93;97609.03;118982;1151;65104;-80
2021/01/14 03:04:11;;;;;;;9.67;8.33;;;;;;;-0.49;87.51;97605.42;118961;1151;65231;-79
2021/01/14 03:06:37;;;;;;;12.55;10.10;;;;;;;-0.49;87.77;97610.66;118947;1151;65124;-79
2021/01/14 03:09:04;;;;;;;12.57;8.90;;;;;;;-0.46;87.52;97604.44;118999;1151;65047;-79
2021/01/14 03:11:33;;;;;;;14.50;10.30;;;;;;;-0.47;87.36;97607.98;118941;1151;65114;-79
2021/01/14 03:14:00;;;;;;;12.27;9.50;;;;;;;-0.46;88.08;97602.66;118968;1151;65044;-79
2021/01/14 03:16:27;;;;;;;9.20;7.60;;;;;;;-0.45;87.53;97604.38;118457;1151;65129;-79
2021/01/14 03:18:54;;;;;;;11.10;8.70;;;;;;;-0.46;88.14;97600.05;118476;1151;65207;-79
2021/01/14 03:21:24;;;;;;;9.93;8.90;;;;;;;-0.44;87.82;97599.99;118402;1151;65065;-79
2021/01/14 03:23:52;;;;;;;9.70;8.20;;;;;;;-0.45;87.30;97604.38;118589;1151;65583;-79
2021/01/14 03:26:20;;;;;;;10.25;7.85;;;;;;;-0.46;87.99;97602.66;119014;1151;65108;-79
2021/01/14 03:28:48;;;;;;;8.73;7.83;;;;;;;-0.49;87.82;97605.42;118990;1151;65037;-79
2021/01/14 03:31:15;;;;;;;10.23;8.10;;;;;;;-0.48;87.45;97603.65;118994;1151;65257;-79
2021/01/14 03:33:43;;;;;;;9.47;8.17;;;;;;;-0.48;87.35;97598.42;118987;1151;65079;-79
2021/01/14 03:36:14;;;;;;;11.93;9.97;;;;;;;-0.49;87.41;97594.11;119028;1151;65101;-79
2021/01/14 03:38:40;;;;;;;10.67;9.00;;;;;;;-0.49;88.07;97601.97;118995;1151;65334;-79
2021/01/14 03:41:14;;;;;;;10.37;8.50;;;;;;;-0.52;87.51;97600.33;118913;1151;65181;-79
2021/01/14 03:43:41;;;;;;;13.40;10.30;;;;;;;-0.53;87.44;97596.00;118891;1151;65191;-79
2021/01/14 03:46:16;;;;;;;12.20;10.10;;;;;;;-0.50;87.75;97598.50;118946;1151;65117;-78
2021/01/14 03:48:44;;;;;;;10.20;9.17;;;;;;;-0.50;87.61;97600.25;119109;1151;65602;-78
2021/01/14 03:51:21;;;;;;;9.27;8.23;;;;;;;-0.50;87.38;97597.63;118938;1151;65146;-79
2021/01/14 03:53:49;;;;;;;9.60;8.60;;;;;;;-0.50;88.21;97605.48;118901;1151;65197;-79
2021/01/14 03:56:17;;;;;;;13.20;8.90;;;;;;;-0.52;87.33;97602.95;119002;1151;65227;-79
2021/01/14 03:58:43;;;;;;;8.50;7.60;;;;;;;-0.52;87.39;97600.33;118968;1151;65043;-79
2021/01/14 04:01:10;;;;;;;8.87;7.67;;;;;;;-0.52;88.24;97607.34;118951;1151;65156;-79
2021/01/14 04:03:42;;;;;;;9.87;8.83;;;;;;;-0.51;88.22;97607.25;118998;1151;65137;-80
2021/01/14 04:06:09;;;;;;;10.00;9.00;;;;;;;-0.50;87.79;97606.36;119079;1151;65101;-80
2021/01/14 04:08:36;;;;;;;11.60;8.80;;;;;;;-0.50;87.90;97603.73;119003;1151;65121;-79
2021/01/14 04:11:04;;;;;;;10.40;8.80;;;;;;;-0.49;87.71;97604.58;119098;1151;65129;-81
2021/01/14 04:13:31;;;;;;;12.50;9.77;;;;;;;-0.50;88.10;97610.72;119052;1151;65181;-81
2021/01/14 04:15:58;;;;;;;9.50;8.40;;;;;;;-0.51;87.65;97609.88;119141;1151;65130;-80
2021/01/14 04:18:25;;;;;;;8.00;6.70;;;;;;;-0.52;88.19;97605.56;119079;1151;65139;-80
2021/01/14 04:20:51;;;;;;;9.43;8.37;;;;;;;-0.54;88.16;97611.78;119016;1151;65156;-79
2021/01/14 04:23:18;;;;;;;9.43;7.80;;;;;;;-0.56;87.49;97606.61;119027;1150;65121;-79
2021/01/14 04:25:45;;;;;;;7.37;6.47;;;;;;;-0.58;87.55;97616.31;118958;1151;65129;-79
2021/01/14 04:28:12;;;;;;;7.80;6.70;;;;;;;-0.61;87.75;97608.58;118614;1151;65150;-78
2021/01/14 04:30:38;;;;;;;8.43;7.63;;;;;;;-0.59;88.25;97611.14;119011;1151;65111;-80
2021/01/14 04:33:11;;;;;;;7.05;6.35;;;;;;;-0.58;88.39;97611.08;118880;1151;65690;-80
2021/01/14 04:35:46;;;;;;;8.80;7.60;;;;;;;-0.59;87.68;97608.52;118993;1151;65056;-79
2021/01/14 04:38:13;;;;;;;12.10;8.43;;;;;;;-0.59;87.74;97613.75;118954;1151;65166;-77
2021/01/14 04:40:39;;;;;;;11.20;9.00;;;;;;;-0.59;87.65;97606.75;119023;1151;65178;-79
2021/01/14 04:43:07;;;;;;;10.13;8.30;;;;;;;-0.59;87.81;97605.91;118942;1151;65101;-80
2021/01/14 04:45:33;;;;;;;9.17;7.97;;;;;;;-0.59;88.22;97608.52;119017;1151;65196;-80
2021/01/14 04:48:02;;;;;;;9.77;8.10;;;;;;;-0.58;88.30;97620.67;118982;1151;65150;-79
2021/01/14 04:50:29;;;;;;;9.53;8.03;;;;;;;-0.60;88.16;97614.69;118966;1151;65204;-81
2021/01/14 04:52:56;;;;;;;8.70;7.80;;;;;;;-0.62;88.23;97619.12;118927;1153;65201;-81
2021/01/14 04:55:28;;;;;;;10.67;8.20;;;;;;;-0.63;88.42;97615.67;119078;1151;65143;-81
2021/01/14 04:57:55;;;;;;;9.77;8.20;;;;;;;-0.61;87.61;97611.19;119050;1151;65101;-78
2021/01/14 05:00:28;;;;;;;8.63;7.10;;;;;;;-0.61;88.36;97620.81;118987;1151;65152;-78
2021/01/14 05:03:01;;;;;;;10.63;8.23;;;;;;;-0.61;87.58;97619.05;119045;1151;65107;-78
2021/01/14 05:05:31;;;;;;;9.07;7.43;;;;;;;-0.64;88.19;97623.57;119025;1151;65123;-81
2021/01/14 05:08:05;;;;;;;;;;;;;;;-0.68;88.37;97622.87;119034;1151;65209;-81
2021/01/14 05:10:33;;;;;;;12.47;9.50;;;;;;;-0.70;87.78;97627.31;119040;1151;65274;-81
2021/01/14 05:13:01;;;;;;;15.10;11.40;;;;;;;-0.72;88.04;97629.98;119061;1151;65124;-79
2021/01/14 05:15:28;;;;;;;15.00;11.43;;;;;;;-0.72;88.44;97632.59;118993;1151;65104;-79
2021/01/14 05:17:59;;;;;;;13.17;11.20;;;;;;;-0.68;88.42;97635.95;119029;1151;65232;-79
2021/01/14 05:20:27;;;;;;;13.10;11.15;;;;;;;-0.66;87.58;97634.09;119036;1151;65135;-79
2021/01/14 05:22:59;;;;;;;17.23;13.20;;;;;;;-0.66;88.22;97641.94;118978;1149;65234;-79
2021/01/14 05:25:26;;;;;;;17.57;14.13;;;;;;;-0.68;88.19;97643.80;119051;1151;65124;-79
2021/01/14 05:27:54;;;;;;;15.50;13.65;;;;;;;-0.71;88.10;97642.16;118975;1151;65104;-79
2021/01/14 05:30:24;;;;;;;16.57;14.23;;;;;;;-0.72;87.71;97650.06;118985;1151;65217;-78
2021/01/14 05:32:50;;;;;;;17.73;13.70;;;;;;;-0.71;87.95;97651.75;118973;1151;65073;-81
2021/01/14 05:35:28;;;;;;;16.75;12.65;;;;;;;-0.71;87.72;97650.01;118979;1151;65155;-78
2021/01/14 05:38:03;;;;;;;17.30;13.33;;;;;;;-0.70;87.96;97656.09;118953;1151;65137;-79
2021/01/14 05:40:31;;;;;;;16.70;14.20;;;;;;;-0.72;87.64;97652.68;119040;1151;65114;-79
2021/01/14 05:43:05;;;;;;;16.47;13.20;;;;;;;-0.74;87.55;97662.35;118962;1151;65105;-79
2021/01/14 05:45:35;;;;;;;16.10;12.43;;;;;;;-0.75;87.36;97666.73;118915;1151;65223;-80
2021/01/14 05:48:10;;;;;;;14.85;11.85;;;;;;;-0.75;87.52;97668.52;118983;1151;65287;-79
2021/01/14 05:50:47;;;;;;;15.00;11.27;;;;;;;-0.75;87.24;97669.35;119124;1151;65484;-79
2021/01/14 05:53:14;;;;;;;12.97;11.60;;;;;;;-0.79;87.93;97678.27;119044;1151;65101;-79
2021/01/14 05:55:43;;;;;;;18.43;13.50;;;;;;;-0.81;87.53;97677.47;118709;1151;65165;-81
2021/01/14 05:58:16;;;;;;;15.03;13.35;;;;;;;-0.81;87.90;97674.02;119072;1151;65456;-79
2021/01/14 06:00:45;;;;;;;16.87;12.60;;;;;;;-0.80;87.80;97679.16;119009;1151;65260;-79
2021/01/14 06:03:29;;;;;;;15.43;12.20;;;;;;;-0.80;88.12;97675.70;119029;1151;65117;-79
2021/01/14 06:05:58;;;;;;;17.35;12.80;;;;;;;-0.79;88.07;97685.23;118965;1151;65566;-79
2021/01/14 06:08:29;;;;;;;19.23;13.80;;;;;;;-0.82;87.74;97683.59;118978;1151;65033;-79
2021/01/14 06:10:56;;;;;;;17.03;13.20;;;;;;;-0.81;88.08;97689.70;118999;1151;65188;-79
2021/01/14 06:13:39;;;;;;;16.20;13.50;;;;;;;-0.81;87.97;97693.16;119013;1151;66170;-79
2021/01/14 06:16:05;;;;;;;23.27;14.13;;;;;;;-0.79;88.03;97695.70;119060;1151;65150;-79
2021/01/14 06:18:32;;;;;;;16.07;13.20;;;;;;;-0.80;87.52;97700.09;118924;1151;65542;-79
2021/01/14 06:20:58;;;;;;;20.53;14.00;;;;;;;-0.81;88.18;97705.40;118992;1151;65123;-78
2021/01/14 06:23:25;;;;;;;19.13;14.33;;;;;;;-0.81;88.11;97711.48;118928;1151;65127;-79
2021/01/14 06:25:55;;;;;;;17.17;11.27;;;;;;;-0.81;87.74;97716.70;118981;1151;65230;-77
2021/01/14 06:28:32;;;;;;;17.87;11.87;;;;;;;-0.81;87.37;97721.94;118955;1151;65095;-78
2021/01/14 06:31:03;;;;;;;19.57;12.50;;;;;;;-0.80;87.37;97717.55;118804;1151;65226;-78
2021/01/14 06:33:31;;;;;;;23.13;13.30;;;;;;;-0.79;88.00;97724.47;118472;1151;65107;-79
2021/01/14 06:36:10;;;;;;;18.07;12.90;;;;;;;-0.79;87.56;97722.73;118644;1151;65239;-78
2021/01/14 06:38:43;;;;;;;27.60;15.53;;;;;;;-0.79;87.53;97738.42;119213;1150;65114;-79
2021/01/14 06:41:21;;;;;;;19.10;13.67;;;;;;;-0.77;87.96;97744.42;119239;1150;65069;-79
2021/01/14 06:43:49;;;;;;;17.15;12.30;;;;;;;-0.76;87.58;97753.98;119228;1151;65102;-79
2021/01/14 06:46:21;;;;;;;22.63;13.90;;;;;;;-0.75;87.99;97749.59;119216;1150;65228;-79
2021/01/14 06:48:59;;;;;;;24.03;13.40;;;;;;;-0.72;88.17;97759.93;119008;1150;65092;-78
2021/01/14 06:51:49;;;;;;;22.97;15.20;;;;;;;-0.72;87.46;97754.70;118950;1151;65137;-78
2021/01/14 06:54:18;;;;;;;21.33;15.58;;;;;;;-0.73;87.78;97766.09;119157;1150;65110;-81
2021/01/14 06:56:56;;;;;;;17.03;13.17;;;;;;;-0.73;88.09;97763.47;119253;1151;65129;-81
2021/01/14 06:59:26;;;;;;;17.17;12.23;;;;;;;-0.72;88.08;97779.09;119239;1150;65099;-81
2021/01/14 07:02:20;;;;;;;15.40;11.75;;;;;;;-0.66;87.70;97777.98;119067;1151;65105;-81
2021/01/14 07:05:03;;;;;;;18.13;12.40;;;;;;;-0.64;87.51;97783.16;119201;1151;65255;-79
2021/01/14 07:07:44;;;;;;;17.20;10.90;;;;;;;-0.64;87.98;97788.39;119047;1151;65287;-79
2021/01/14 07:10:12;;;;;;;17.27;12.60;;;;;;;-0.64;87.92;97788.39;119286;1150;66344;-80
2021/01/14 07:12:41;;;;;;;17.97;11.93;;;;;;;-0.62;87.25;97799.66;119223;1150;65204;-78
2021/01/14 07:15:11;;;;;;;18.20;12.43;;;;;;;-0.63;87.94;97798.81;119257;1150;65135;-78
2021/01/14 07:17:39;;;;;;;;;;;;;;;-0.58;87.80;97806.45;119239;1151;65124;-79
2021/01/14 07:20:12;;;;;;;16.70;11.30;;;;;;;-0.56;87.38;97810.70;119291;1150;65034;-78
2021/01/14 07:22:42;;;;;;;14.33;10.90;;;;;;;-0.52;87.81;97820.14;118973;1151;65154;-79
2021/01/14 07:25:12;;;;;;;14.90;11.43;;;;;;;-0.50;87.02;97817.45;119216;1151;65185;-78
2021/01/14 07:27:40;;;;;;;16.07;11.05;;;;;;;-0.48;87.31;97826.09;119253;1150;65111;-79
2021/01/14 07:30:08;;;;;;;13.50;10.30;;;;;;;-0.42;87.14;97830.22;118997;1151;65282;-79
2021/01/14 07:32:58;;;;;;;15.80;11.63;;;;;;;-0.37;87.49;97836.99;119248;1150;65129;-78
2021/01/14 07:35:36;;;;;;;16.67;10.83;;;;;;;-0.29;87.08;97831.41;119209;1150;65080;-79
2021/01/14 07:38:05;;;;;;;19.83;11.70;;;;;;;-0.23;86.37;97834.63;119209;1150;65054;-78
2021/01/14 07:40:33;;;;;;;19.00;12.40;;;;;;;-0.19;86.75;97837.96;119258;1151;65134;-79
2021/01/14 07:43:05;;;;;;;17.30;12.70;;;;;;;-0.13;86.45;97842.95;119163;1150;65063;-78
2021/01/14 07:45:32;;;;;;;17.37;13.17;;;;;;;-0.06;86.58;97843.53;118679;1151;65153;-79
2021/01/14 07:48:19;;;;;;;19.10;13.70;;;;;;;0.01;86.15;97849.38;118505;1150;65132;-79
2021/01/14 07:50:55;;;;;;;19.83;13.40;;;;;;;0.06;86.44;97843.02;119237;1151;65127;-79
2021/01/14 07:53:23;;;;;;;19.10;12.20;;;;;;;0.08;85.89;97850.80;119252;1151;65634;-81
2021/01/14 07:55:50;;;;;;;17.40;11.37;;;;;;;0.10;86.02;97856.83;119005;1151;65210;-79
2021/01/14 07:58:21;;;;;;;13.00;9.83;;;;;;;0.13;85.94;97861.92;119217;1151;65166;-80
2021/01/14 08:01:08;;;;;;;18.53;10.67;;;;;;;0.16;86.30;97872.30;119208;1151;65156;-78
2021/01/14 08:03:39;;;;;;;15.00;11.75;;;;;;;0.14;86.06;97872.35;119289;1150;65127;-79
2021/01/14 08:06:22;;;;;;;18.75;12.10;;;;;;;0.17;85.88;97877.45;119001;1151;65097;-79
2021/01/14 08:09:00;;;;;;;20.07;13.40;;;;;;;0.26;85.81;97885.83;119209;1151;65168;-78
2021/01/14 08:11:31;;;;;;;23.20;14.90;;;;;;;0.38;85.44;97887.93;119307;1150;65131;-81
2021/01/14 08:14:13;;;;;;;19.55;14.10;;;;;;;0.52;85.43;97893.41;119005;1151;65227;-81
2021/01/14 08:16:42;;;;;;;19.40;14.20;;;;;;;0.66;84.95;97892.81;119238;1150;65120;-78
2021/01/14 08:19:18;;;;;;;15.70;13.10;;;;;;;0.65;84.21;97899.80;119230;1150;65085;-81
2021/01/14 08:21:49;;;;;;;22.45;15.45;;;;;;;0.63;85.12;97898.17;119278;1151;65268;-78
2021/01/14 08:24:45;;;;;;;22.40;13.80;;;;;;;0.61;84.52;97905.28;119125;1151;65148;-79
2021/01/14 08:27:14;;;;;;;22.03;14.23;;;;;;;0.57;84.08;97914.18;118656;1151;65124;-79
2021/01/14 08:30:03;;;;;;;22.73;14.40;;;;;;;0.62;84.87;97912.21;118627;1151;65111;-78
2021/01/14 08:33:05;;;;;;;28.70;15.80;;;;;;;0.67;84.55;97919.87;118605;1151;65122;-78
2021/01/14 08:35:34;;;;;;;25.70;14.53;;;;;;;0.72;83.82;97920.53;118575;1151;65242;-79
2021/01/14 08:38:19;;;;;;;18.25;12.00;;;;;;;0.72;83.18;97920.53;118683;1151;65124;-80
2021/01/14 08:40:46;;;;;;;18.15;11.00;;;;;;;0.72;83.54;97923.16;118889;1150;65156;-78
2021/01/14 08:43:19;;;;;;;17.00;11.53;;;;;;;0.64;83.28;97929.58;118614;1151;65062;-79
2021/01/14 08:45:50;;;;;;;17.90;10.20;;;;;;;0.65;83.63;97933.05;118614;1150;65105;-78
2021/01/14 08:48:19;;;;;;;13.23;8.77;;;;;;;0.67;83.15;97943.48;119027;1150;65135;-79
2021/01/14 08:50:50;;;;;;;13.13;7.70;;;;;;;0.69;82.71;97950.36;119211;1150;65136;-79
2021/01/14 08:53:19;;;;;;;12.63;7.90;;;;;;;0.79;82.86;97959.53;119224;1150;65120;-80
2021/01/14 08:55:53;;;;;;;11.70;8.05;;;;;;;0.94;82.70;97959.75;119229;1150;65197;-79
2021/01/14 08:58:20;;;;;;;11.50;8.57;;;;;;;1.10;82.85;97960.76;119207;1150;65126;-79
2021/01/14 09:00:48;;;;;;;11.13;8.80;;;;;;;1.31;82.76;97964.17;119184;1150;65184;-79
2021/01/14 09:03:15;;;;;;;12.45;9.15;;;;;;;1.50;81.61;97965.04;118481;1151;65130;-78
2021/01/14 09:05:44;;;;;;;13.00;8.20;;;;;;;1.61;81.20;97968.94;118686;1151;65106;-79
2021/01/14 09:08:12;;;;;;;13.77;9.60;;;;;;;1.69;81.23;97972.05;118490;1151;65155;-79
2021/01/14 09:10:42;;;;;;;13.37;7.93;;;;;;;1.72;80.59;97978.00;118887;1150;65095;-78
2021/01/14 09:13:10;;;;;;;11.83;8.47;;;;;;;1.70;79.66;97977.21;119011;1150;65114;-78
2021/01/14 09:15:37;;;;;;;11.87;8.60;;;;;;;1.68;80.87;97981.68;119193;1150;65228;-78
2021/01/14 09:18:04;;;;;;;12.43;8.27;;;;;;;1.64;80.15;97990.64;119144;1150;65130;-78
2021/01/14 09:20:31;;;;;;;11.83;9.00;;;;;;;1.63;79.87;97993.33;118690;1150;65123;-78
2021/01/14 09:23:19;;;;;;;10.70;8.43;;;;;;;1.68;80.89;98000.06;118637;1150;65162;-78
2021/01/14 09:25:51;;;;;;;9.03;7.00;;;;;;;1.74;80.51;98006.83;118596;1151;65167;-79
2021/01/14 09:28:24;;;;;;;11.30;8.17;;;;;;;1.86;79.92;97998.34;119162;1150;65207;-78
2021/01/14 09:30:58;;;;;;;12.10;8.57;;;;;;;1.99;79.66;98009.13;118818;1151;65037;-79
2021/01/14 09:33:37;;;;;;;9.73;7.93;;;;;;;2.07;79.86;98012.23;118632;1150;65130;-79
2021/01/14 09:36:07;;;;;;;12.40;8.30;;;;;;;2.19;80.00;98001.13;119245;1150;65120;-79
2021/01/14 09:38:41;;;;;;;;;;;;;;;2.09;78.40;98017.42;119260;1151;65129;-80
2021/01/14 09:41:08;;;;;;;13.83;10.53;;;;;;;1.83;78.42;98019.52;119297;1150;65107;-80
2021/01/14 09:43:39;;;;;;;16.95;11.90;;;;;;;1.67;79.99;98021.16;118912;1150;65120;-79
2021/01/14 09:46:11;;;;;;;15.63;12.30;;;;;;;1.54;79.68;98023.50;118839;1150;65133;-78
2021/01/14 09:48:38;;;;;;;17.57;12.57;;;;;;;1.38;79.63;98027.76;119098;1150;65062;-79
2021/01/14 09:51:13;;;;;;;20.93;11.87;;;;;;;1.26;80.11;98029.15;119213;1150;65249;-79
2021/01/14 09:53:44;;;;;;;19.37;12.13;;;;;;;1.23;80.38;98029.29;119249;1150;65140;-79
2021/01/14 09:56:17;;;;;;;20.77;13.43;;;;;;;1.21;80.24;98036.38;119206;1150;65108;-79
2021/01/14 09:58:46;;;;;;;16.47;12.40;;;;;;;1.17;79.92;98033.05;119269;1151;65124;-81
2021/01/14 10:01:17;;;;;;;17.20;13.00;;;;;;;1.18;80.20;98039.98;119222;1150;65567;-78
2021/01/14 10:03:50;;;;;;;16.23;11.63;;;;;;;1.14;80.13;98043.68;119238;1151;65146;-79
2021/01/14 10:06:21;;;;;;;16.07;11.53;;;;;;;1.14;80.39;98041.05;119250;1151;65156;-78
2021/01/14 10:08:49;;;;;;;15.97;12.00;;;;;;;1.07;80.92;98036.98;119219;1151;65136;-78
2021/01/14 10:11:20;;;;;;;15.63;12.20;;;;;;;1.04;81.01;98058.12;119136;1151;65127;-78
2021/01/14 10:13:52;;;;;;;17.67;13.43;;;;;;;0.99;80.99;98047.81;118925;1150;65146;-78
2021/01/14 10:16:20;;;;;;;16.07;12.77;;;;;;;0.92;81.00;98054.23;119220;1150;65255;-78
2021/01/14 10:18:46;;;;;;;16.57;13.50;;;;;;;0.92;80.98;98058.64;119219;1150;65130;-78
2021/01/14 10:21:22;;;;;;;15.55;12.00;;;;;;;0.92;80.94;98062.11;118957;1151;65144;-79
2021/01/14 10:23:49;;;;;;;16.47;12.90;;;;;;;0.95;81.08;98058.50;118810;1150;65073;-79
2021/01/14 10:26:28;;;;;;;16.10;12.50;;;;;;;1.02;81.34;98058.17;118754;1150;65152;-78
2021/01/14 10:28:55;;;;;;;20.70;16.05;;;;;;;1.12;80.93;98058.63;118697;1151;65120;-79
2021/01/14 10:31:38;;;;;;;17.57;14.07;;;;;;;1.22;81.28;98067.81;118737;1150;65191;-78
2021/01/14 10:34:08;;;;;;;17.50;13.93;;;;;;;1.26;81.07;98064.14;118801;1150;65066;-79
2021/01/14 10:36:46;;;;;;;19.73;13.87;;;;;;;1.27;80.87;98068.46;118513;1151;65114;-78
2021/01/14 10:39:13;;;;;;;20.03;14.60;;;;;;;1.13;80.65;98072.59;119243;1150;65123;-79
2021/01/14 10:41:40;;;;;;;21.53;16.37;;;;;;;1.08;80.83;98078.07;118999;1151;65105;-79
2021/01/14 10:44:08;;;;;;;22.47;16.90;;;;;;;1.07;81.05;98086.84;118968;1151;65105;-78
2021/01/14 10:46:35;;;;;;;24.37;15.50;;;;;;;1.06;81.06;98090.39;119035;1151;65213;-79
2021/01/14 10:49:11;;;;;;;23.50;16.90;;;;;;;1.03;81.24;98090.53;119074;1150;65201;-78
2021/01/14 10:51:40;;;;;;;23.57;15.80;;;;;;;1.01;80.93;98089.73;119025;1151;65038;-79
2021/01/14 10:54:08;;;;;;;22.60;15.47;;;;;;;0.93;80.94;98095.31;119248;1150;65149;-79
2021/01/14 10:56:52;;;;;;;24.93;17.17;;;;;;;0.87;81.01;98087.71;119230;1151;65119;-78
2021/01/14 10:59:24;;;;;;;20.45;14.85;;;;;;;0.76;81.10;98092.53;119036;1151;65207;-78
2021/01/14 11:02:06;;;;;;;19.43;14.20;;;;;;;0.67;81.39;98098.17;119027;1150;65127;-78
2021/01/14 11:04:33;;;;;;;18.93;14.70;;;;;;;0.67;81.36;98101.64;118836;1151;65194;-80
2021/01/14 11:07:11;;;;;;;22.57;14.97;;;;;;;0.82;81.49;98100.16;119208;1151;65046;-79
2021/01/14 11:09:51;;;;;;;18.07;14.47;;;;;;;0.93;80.91;98094.47;119046;1151;65151;-79
2021/01/14 11:12:19;;;;;;;19.95;13.93;;;;;;;1.12;81.15;98102.39;119005;1151;65722;-79
2021/01/14 11:14:46;;;;;;;20.17;14.63;;;;;;;1.29;80.86;98106.00;119295;1150;65147;-80
2021/01/14 11:17:13;;;;;;;17.60;13.63;;;;;;;1.28;80.13;98108.67;119019;1151;65267;-79
2021/01/14 11:19:40;;;;;;;17.50;12.80;;;;;;;1.15;80.15;98112.75;119212;1151;65124;-80
2021/01/14 11:22:06;;;;;;;18.03;14.03;;;;;;;1.03;80.61;98114.14;119253;1150;65123;-80
2021/01/14 11:24:32;;;;;;;16.00;13.37;;;;;;;0.90;80.28;98113.81;119248;1151;65554;-79
2021/01/14 11:26:59;;;;;;;16.90;13.63;;;;;;;0.77;80.87;98116.09;119229;1150;65117;-79
2021/01/14 11:29:25;;;;;;;14.73;12.83;;;;;;;0.74;80.81;98121.46;119222;1150;65124;-79
2021/01/14 11:31:52;;;;;;;18.30;14.40;;;;;;;0.69;80.92;98120.80;118962;1150;65187;-79
2021/01/14 11:34:18;;;;;;;16.87;12.87;;;;;;;0.67;81.51;98121.77;119237;1150;65203;-80
2021/01/14 11:36:44;;;;;;;19.60;13.60;;;;;;;0.67;81.17;98121.77;119237;1151;65092;-80
2021/01/14 11:39:11;;;;;;;19.13;13.97;;;;;;;0.63;81.47;98118.41;118973;1151;65200;-80
2021/01/14 11:41:37;;;;;;;18.93;13.17;;;;;;;0.64;81.69;98128.84;118980;1151;65121;-80
2021/01/14 11:44:04;;;;;;;17.67;14.20;;;;;;;0.71;81.27;98129.46;118955;1150;65196;-80
2021/01/14 11:46:31;;;;;;;19.83;14.07;;;;;;;0.74;81.12;98124.08;119271;1150;65149;-80
2021/01/14 11:48:57;;;;;;;19.23;15.07;;;;;;;0.78;81.33;98128.27;119233;1151;65232;-78
2021/01/14 11:51:24;;;;;;;16.47;11.97;;;;;;;0.87;81.44;98135.77;119022;1150;65069;-78
2021/01/14 11:53:50;;;;;;;17.33;13.93;;;;;;;0.86;81.54;98139.29;118956;1151;65106;-79
2021/01/14 11:56:17;;;;;;;19.10;13.43;;;;;;;0.88;81.23;98136.62;119219;1150;65130;-79
2021/01/14 11:58:44;;;;;;;15.90;12.97;;;;;;;0.96;81.61;98133.67;119283;1151;65138;-79
2021/01/14 12:01:11;;;;;;;19.57;14.53;;;;;;;0.93;81.73;98139.06;119245;1150;65122;-79
2021/01/14 12:03:40;;;;;;;20.60;14.80;;;;;;;0.92;81.82;98138.18;118761;1150;65172;-79
2021/01/14 12:06:06;;;;;;;20.30;15.50;;;;;;;0.88;81.38;98150.58;118965;1151;65128;-80
2021/01/14 12:08:33;;;;;;;43.37;25.37;;;;;;;0.87;81.86;98153.28;119084;1151;65257;-80
2021/01/14 12:10:59;;;;;;;34.37;20.63;;;;;;;0.77;81.62;98154.58;119034;1149;65108;-79
2021/01/14 12:13:26;;;;;;;27.13;19.33;;;;;;;0.67;81.54;98161.11;119038;1151;65226;-79
2021/01/14 12:15:52;;;;;;;29.53;18.97;;;;;;;0.57;82.45;98160.61;119256;1150;65124;-79
2021/01/14 12:18:19;;;;;;;29.87;20.17;;;;;;;0.54;82.78;98169.45;119226;1150;65114;-79
2021/01/14 12:20:45;;;;;;;34.93;20.80;;;;;;;0.56;82.35;98175.50;119044;1151;65097;-81
2021/01/14 12:23:11;;;;;;;36.70;22.87;;;;;;;0.57;82.67;98171.09;119263;1150;65114;-81
2021/01/14 12:25:38;;;;;;;30.05;18.98;;;;;;;0.65;82.32;98176.89;119251;1150;65076;-80
2021/01/14 12:28:04;;;;;;;26.97;19.87;;;;;;;0.69;82.10;98180.27;119239;1151;65126;-78
2021/01/14 12:30:31;;;;;;;29.83;21.20;;;;;;;0.84;82.41;98192.73;119092;1151;65200;-82
2021/01/14 12:32:58;;;;;;;31.67;22.43;;;;;;;1.00;82.32;98191.21;119211;1150;65120;-80
2021/01/14 12:35:24;;;;;;;35.45;22.30;;;;;;;1.16;82.05;98196.67;119219;1150;65236;-80
2021/01/14 12:37:51;;;;;;;34.07;21.97;;;;;;;1.25;81.79;98188.40;119242;1151;65100;-79
2021/01/14 12:40:17;;;;;;;29.73;20.40;;;;;;;1.34;81.90;98197.64;119227;1150;65228;-80
2021/01/14 12:42:46;;;;;;;34.57;22.70;;;;;;;1.44;81.31;98203.36;119255;1150;65117;-80
2021/01/14 12:45:13;;;;;;;35.90;23.87;;;;;;;1.47;81.26;98211.11;119266;1150;65117;-80
2021/01/14 12:47:42;;;;;;;33.90;22.35;;;;;;;1.50;81.56;98222.36;119185;1150;65140;-80
2021/01/14 12:50:10;;;;;;;35.67;21.37;;;;;;;1.51;81.56;98220.58;119208;1150;65131;-80
2021/01/14 12:52:36;;;;;;;38.90;24.33;;;;;;;1.52;80.98;98222.27;118955;1150;65235;-79
2021/01/14 12:55:04;;;;;;;33.35;22.20;;;;;;;1.46;81.32;98227.80;118780;1151;65587;-79
2021/01/14 12:57:31;;;;;;;30.40;20.93;;;;;;;1.43;81.45;98231.40;118688;1151;65248;-80
2021/01/14 12:59:58;;;;;;;31.70;21.23;;;;;;;1.41;81.71;98240.26;118882;1150;65136;-80
2021/01/14 13:02:24;;;;;;;33.00;22.10;;;;;;;1.39;80.83;98247.34;119143;1150;65102;-80
2021/01/14 13:04:51;;;;;;;37.00;24.57;;;;;;;1.30;81.38;98243.34;118502;1151;65660;-80
2021/01/14 13:07:20;;;;;;;43.83;28.03;;;;;;;1.21;81.87;98243.70;118981;1151;65174;-80
2021/01/14 13:09:47;;;;;;;41.25;27.48;;;;;;;1.13;81.61;98257.13;119244;1150;65057;-80
2021/01/14 13:12:13;;;;;;;46.60;30.60;;;;;;;1.04;82.15;98260.98;119233;1151;65050;-80
2021/01/14 13:14:40;;;;;;;38.40;27.77;;;;;;;0.96;82.11;98272.72;119014;1150;65127;-79
2021/01/14 13:17:07;;;;;;;35.37;25.97;;;;;;;0.92;82.14;98273.73;119240;1150;65114;-79
2021/01/14 13:19:33;;;;;;;32.77;24.80;;;;;;;0.83;82.16;98283.68;119241;1150;65143;-79
2021/01/14 13:21:59;;;;;;;33.33;24.63;;;;;;;0.77;82.43;98290.95;118758;1150;65227;-79
2021/01/14 13:24:26;;;;;;;36.17;26.53;;;;;;;0.64;82.36;98287.94;119209;1150;65150;-79
2021/01/14 13:26:52;;;;;;;37.53;27.93;;;;;;;0.55;82.27;98301.38;119172;1151;65124;-79
2021/01/14 13:29:21;;;;;;;34.20;25.67;;;;;;;0.49;83.05;98291.98;119267;1151;65034;-79
2021/01/14 13:31:49;;;;;;;35.85;22.60;;;;;;;0.43;82.08;98306.18;119094;1151;65133;-80
2021/01/14 13:34:18;;;;;;;38.53;28.47;;;;;;;0.41;82.78;98312.39;119282;1150;65293;-80
2021/01/14 13:36:49;;;;;;;32.35;23.87;;;;;;;0.49;82.56;98312.95;119353;1151;65102;-79
2021/01/14 13:39:17;;;;;;;27.37;20.27;;;;;;;0.54;81.73;98308.40;119333;1150;65137;-80
2021/01/14 13:41:49;;;;;;;26.40;17.15;;;;;;;0.57;81.39;98307.43;119277;1150;65073;-81
2021/01/14 13:44:16;;;;;;;20.43;14.73;;;;;;;0.55;80.96;98328.45;119271;1150;65149;-80
2021/01/14 13:46:43;;;;;;;25.50;15.77;;;;;;;0.53;81.43;98332.06;119253;1151;65181;-80
2021/01/14 13:49:11;;;;;;;22.50;15.07;;;;;;;0.50;81.00;98329.53;119217;1150;65500;-80
2021/01/14 13:51:40;;;;;;;21.77;15.47;;;;;;;0.51;81.26;98334.73;119169;1150;65137;-80
2021/01/14 13:54:09;;;;;;;26.73;17.87;;;;;;;0.47;80.62;98335.74;119027;1150;65197;-80
2021/01/14 13:56:36;;;;;;;28.75;17.10;;;;;;;0.46;80.94;98333.20;118964;1151;65137;-80
2021/01/14 13:59:04;;;;;;;27.40;18.07;;;;;;;0.46;81.05;98341.06;118688;1150;65159;-79
2021/01/14 14:01:33;;;;;;;29.10;18.17;;;;;;;0.45;80.42;98353.31;119218;1150;65178;-81
2021/01/14 14:04:01;;;;;;;32.48;18.05;;;;;;;0.42;80.46;98356.02;118894;1151;65210;-81
2021/01/14 14:06:40;;;;;;;26.17;16.77;;;;;;;0.40;80.83;98360.49;118522;1151;65226;-80
2021/01/14 14:09:12;;;;;;;29.60;19.33;;;;;;;0.38;80.79;98368.39;119248;1151;65139;-79
2021/01/14 14:11:42;;;;;;;33.20;21.23;;;;;;;0.35;81.13;98371.13;118805;1151;65290;-79
2021/01/14 14:14:16;;;;;;;32.43;21.17;;;;;;;0.34;80.57;98371.17;118797;1150;65103;-79
2021/01/14 14:16:46;;;;;;;38.20;22.30;;;;;;;0.33;81.26;98382.58;118810;1150;65149;-80
2021/01/14 14:19:13;;;;;;;37.00;24.10;;;;;;;0.28;81.33;98390.59;119260;1150;65127;-80
2021/01/14 14:21:40;;;;;;;41.65;24.45;;;;;;;0.27;80.63;98388.05;119001;1151;65111;-79
2021/01/14 14:24:08;;;;;;;38.77;24.27;;;;;;;0.26;81.50;98400.27;119205;1150;65437;-79
2021/01/14 14:26:36;;;;;;;38.10;23.27;;;;;;;0.25;81.14;98397.72;118701;1151;65123;-79
2021/01/14 14:29:05;;;;;;;41.50;25.60;;;;;;;0.23;81.15;98397.77;119032;1151;65150;-79
2021/01/14 14:31:37;;;;;;;47.50;25.90;;;;;;;0.18;81.29;98415.41;119294;1150;65127;-79